Latest Weather Observations for Camooweal

IDD60801

Issued at 10:31 pm CST Thursday 22 February 2018 (issued every 30 minutes, with the page automatically refreshed every 10 minutes)

About weather observations | Map of weather stations | Latest weather observations for NT | Other Formats
Station Details ID: 037010 Name: CAMOOWEAL TOWNSHIP Lat: -19.92 Lon: 138.12 Height: 231.2 m
Data from the previous 72 hours. | See also: Recent months at Camooweal
Date/Time
CST
Temp
°C
App
Temp
°C
Dew
Point
°C
Rel
Hum
%
Delta-T
°C
Wind Press
QNH
hPa
Press
MSL
hPa
Rain since
9am
mm
Dir  Spd
km/h
Gust
km/h
Spd
kts
Gust
kts
22/10:30pm 31.3 29.9 9.5 26 12.5 SW 7 13 4 7 1002.3 1000.5 0.0
22/10:00pm 32.1 30.3 9.6 25 12.9 SSW 9 11 5 6 1002.3 1000.5 0.0
22/09:30pm 32.9 30.6 9.0 23 13.7 SSE 11 13 6 7 1002.1 1000.3 0.0
22/09:00pm 34.6 31.8 8.4 20 14.9 SSE 13 19 7 10 1001.7 999.9 0.0
22/08:30pm 34.7 31.7 7.7 19 15.3 S 13 17 7 9 1001.3 999.6 0.0
22/08:00pm 35.3 32.8 8.2 19 15.4 S 11 15 6 8 1000.8 999.1 0.0
22/07:30pm 35.8 33.0 8.6 19 15.7 S 13 15 7 8 1000.1 998.3 0.0
22/07:00pm 37.7 34.1 6.6 15 17.5 SSW 15 20 8 11 1000.0 998.2 0.0
22/06:30pm 39.2 34.3 6.8 14 18.5 SSW 22 30 12 16 999.3 997.5 0.0
22/06:00pm 40.4 34.7 6.7 13 19.2 SSW 26 39 14 21 998.9 997.1 0.0
22/05:30pm 40.9 34.9 7.1 13 19.5 SW 28 39 15 21 998.7 996.9 0.0
22/05:00pm 41.5 37.0 8.6 14 19.3 S 22 33 12 18 998.7 996.9 0.0
22/04:30pm 40.8 37.6 11.8 18 17.9 SSE 20 32 11 17 998.9 997.1 0.0
22/04:00pm 41.7 38.6 11.7 17 18.4 S 19 33 10 18 999.0 997.2 0.0
22/03:30pm 41.3 38.9 11.3 17 18.4 WSW 15 28 8 15 999.3 997.5 0.0
22/03:00pm 41.3 38.7 13.8 20 17.3 SSW 20 35 11 19 999.6 997.8 0.0
22/02:30pm 40.4 37.0 13.8 20 16.8 S 24 35 13 19 999.9 998.1 0.0
22/02:00pm 40.6 37.8 13.3 20 17.1 S 20 33 11 18 1000.4 998.7 0.0
22/01:30pm 40.8 38.1 11.8 18 17.8 SE 17 28 9 15 1000.8 999.1 0.0
22/01:00pm 40.5 37.2 11.6 18 17.6 SW 20 32 11 17 1001.2 999.5 0.0
22/12:30pm 39.4 37.2 10.7 18 17.3 WSW 13 24 7 13 1001.6 999.8 0.0
22/12:00pm 39.7 38.3 13.3 21 16.5 SSW 13 20 7 11 1001.9 1000.1 0.0
22/11:30am 38.3 38.5 14.2 24 15.2 SW 6 15 3 8 1002.2 1000.4 0.0
22/11:00am 37.0 37.5 14.9 27 14.0 ENE 6 9 3 5 1002.5 1000.7 0.0
22/10:30am 36.4 36.7 15.0 28 13.6 ENE 7 13 4 7 1002.6 1000.8 0.0
22/10:00am 35.3 35.6 15.1 30 12.7 E 7 11 4 6 1002.7 1000.9 0.0
22/09:30am 34.5 33.4 14.4 30 12.5 E 13 19 7 10 1002.9 1001.1 0.0
22/09:00am 33.4 32.4 14.5 32 11.7 E 13 19 7 10 1003.5 1001.7 0.0
22/08:30am 32.5 31.8 13.2 31 11.7 E 9 13 5 7 1003.4 1001.6 0.2
22/08:00am 30.9 30.1 11.8 31 11.3 SE 7 11 4 6 1003.3 1001.5 0.2
22/07:30am 28.9 27.9 12.3 36 9.8 SE 9 13 5 7 1003.3 1001.5 0.2
22/07:00am 25.8 26.8 13.3 46 7.4 CALM 0 4 0 2 1002.8 1001.0 0.2
22/06:30am 25.7 24.9 11.8 42 8.0 SW 7 7 4 4 1002.3 1000.5 0.2
22/06:00am 26.0 25.2 11.7 41 8.2 W 7 9 4 5 1002.1 1000.3 0.2
22/05:30am 26.4 26.1 11.3 39 8.7 SW 4 7 2 4 1001.6 999.8 0.2
22/05:00am 27.2 25.9 10.0 34 9.7 SSW 7 9 4 5 1001.3 999.6 0.2
22/04:30am 28.0 26.5 9.3 31 10.5 SSW 7 9 4 5 1001.1 999.4 0.2
22/04:00am 28.4 27.4 8.7 29 10.9 SSW 4 7 2 4 1000.8 999.1 0.2
22/03:30am 28.7 26.5 9.4 30 10.9 SSW 11 13 6 7 1000.9 999.2 0.2
22/03:00am 30.1 28.7 9.6 28 11.6 SW 7 13 4 7 1001.1 999.4 0.2
22/02:30am 30.7 29.3 9.0 26 12.3 SSW 6 7 3 4 1001.3 999.6 0.2
22/02:00am 32.5 31.2 9.3 24 13.2 NNW 6 7 3 4 1001.7 999.9 0.2
22/01:30am 31.7 31.4 8.7 24 13.0 CALM 0 9 0 5 1001.4 999.7 0.2
22/01:00am 32.3 30.1 7.9 22 13.6 NNW 9 11 5 6 1001.7 999.9 0.2
22/12:30am 33.0 30.6 8.5 22 13.9 S 11 17 6 9 1001.7 999.9 0.2
22/12:00am 33.0 31.3 9.7 24 13.4 SSE 9 20 5 11 1002.0 1000.2 0.2
 
Date/Time
CST
Temp
°C
App
Temp
°C
Dew
Point
°C
Rel
Hum
%
Delta-T
°C
Wind Press
QNH
hPa
Press
MSL
hPa
Rain since
9am
mm
Dir  Spd
km/h
Gust
km/h
Spd
kts
Gust
kts
21/11:30pm 33.7 32.5 10.3 24 13.7 S 7 9 4 5 1002.2 1000.4 0.2
21/11:00pm 33.8 33.3 12.7 27 12.8 S 7 9 4 5 1002.4 1000.6 0.2
21/10:30pm 34.9 34.9 15.3 31 12.4 S 9 15 5 8 1002.3 1000.5 0.2
21/10:00pm 35.3 35.1 14.6 29 12.9 S 9 15 5 8 1002.0 1000.2 0.2
21/09:30pm 36.2 36.2 15.3 28 13.3 WSW 9 15 5 8 1001.6 999.8 0.2
21/09:00pm 35.8 35.7 15.0 29 13.1 SSW 9 13 5 7 1001.0 999.3 0.2
21/08:30pm 35.8 36.5 14.4 27 13.4 SSE 4 7 2 4 1000.3 998.5 0.2
21/08:00pm 36.8 36.4 14.1 25 14.2 W 9 11 5 6 999.7 997.9 0.2
21/07:30pm 38.1 37.7 14.0 24 15.2 W 9 11 5 6 999.5 997.7 0.2
21/07:00pm 39.2 37.5 13.6 22 16.0 WSW 15 20 8 11 999.2 997.4 0.2
21/06:30pm 40.2 37.9 12.9 20 17.0 WSW 17 24 9 13 999.1 997.3 0.2
21/06:00pm 41.1 39.4 13.7 20 17.2 WSW 15 20 8 11 999.0 997.2 0.2
21/05:30pm 41.4 38.5 12.3 18 18.1 WSW 19 30 10 16 999.0 997.2 0.2
21/05:00pm 41.6 38.6 12.5 18 18.1 WSW 20 37 11 20 999.1 997.3 0.2
21/04:30pm 41.5 38.1 12.4 18 18.1 WSW 22 35 12 19 999.4 997.6 0.2
21/04:00pm 41.4 38.8 13.1 19 17.7 W 19 37 10 20 999.6 997.8 0.2
21/03:30pm 41.0 38.8 14.3 20 17.0 W 19 30 10 16 1000.0 998.2 0.2
21/03:00pm 41.1 40.2 15.8 22 16.4 W 15 24 8 13 1000.4 998.7 0.2
21/02:30pm 40.5 38.6 15.3 22 16.2 W 19 28 10 15 1001.0 999.3 0.2
21/02:00pm 39.7 39.1 16.6 26 15.0 W 15 32 8 17 1001.2 999.5 0.2
21/01:30pm 39.4 38.1 16.9 26 14.8 WSW 19 32 10 17 1001.9 1000.1 0.2
21/01:00pm 38.7 37.7 17.5 29 13.9 W 19 32 10 17 1002.4 1000.6 0.2
21/12:30pm 37.9 37.6 18.3 31 13.0 W 17 30 9 16 1002.8 1001.0 0.2
21/12:00pm 37.4 36.8 18.4 32 12.6 W 19 32 10 17 1003.4 1001.6 0.2
21/11:30am 36.5 36.3 18.6 35 11.9 W 17 28 9 15 1004.1 1002.3 0.2
21/11:00am 35.8 35.3 17.9 34 11.7 W 17 26 9 14 1004.7 1003.0 0.2
21/10:30am 34.7 36.3 19.9 42 10.0 WNW 11 24 6 13 1005.1 1003.4 0.2
21/10:00am 33.3 35.3 21.5 50 8.1 WNW 13 24 7 13 1005.1 1003.4 0.2
21/09:30am 32.6 33.8 21.5 52 7.6 W 17 28 9 15 1005.5 1003.8 0.2
21/09:00am 31.8 33.7 21.3 53 7.1 WNW 13 22 7 12 1005.6 1003.9 0.0
21/08:30am 31.1 31.9 20.7 54 7.0 WNW 17 26 9 14 1005.2 1003.5 3.6
21/08:00am 29.9 31.9 21.6 61 5.6 WNW 13 20 7 11 1005.3 1003.6 3.6
21/07:30am 28.0 31.1 22.2 70 4.0 WNW 9 13 5 7 1005.1 1003.4 3.6
21/07:00am 26.6 29.8 22.4 78 2.9 W 9 11 5 6 1005.0 1003.3 3.6
21/06:30am 26.1 29.3 22.4 80 2.5 WSW 9 11 5 6 1004.7 1003.0 3.6
21/06:00am 26.6 28.6 22.2 77 3.0 W 15 22 8 12 1004.5 1002.8 3.6
21/05:30am 27.1 30.1 22.7 77 3.0 WNW 11 17 6 9 1004.3 1002.6 3.6
21/05:00am 25.8 30.9 22.7 83 2.1 CALM 0 0 0 0 1004.4 1002.7 3.6
21/04:30am 26.1 30.8 22.0 78 2.8 CALM 0 0 0 0 1004.2 1002.4 3.6
21/04:00am 26.2 29.3 22.1 78 2.8 NNW 9 15 5 8 1003.9 1002.1 3.6
21/03:30am 25.9 28.5 22.0 79 2.6 NW 11 17 6 9 1003.7 1001.9 3.6
21/03:00am 25.3 26.6 21.6 80 2.5 NW 17 26 9 14 1003.6 1001.8 3.6
21/02:30am 24.0 26.4 22.3 90 1.1 NNW 13 17 7 9 1004.2 1002.4 3.6
21/02:00am 23.6 26.7 22.2 92 0.9 NNW 9 13 5 7 1005.0 1003.3 3.6
21/01:30am 23.9 26.3 22.3 91 1.1 SW 13 20 7 11 1007.1 1005.3 3.4
21/01:00am 24.4 27.6 22.3 88 1.4 E 9 13 5 7 1006.8 1005.0 3.4
21/12:30am 24.5 27.3 21.6 84 1.9 E 9 13 5 7 1006.6 1004.8 3.2
21/12:00am 24.6 25.0 20.7 79 2.6 NE 19 26 10 14 1006.2 1004.4 3.2
 
Date/Time
CST
Temp
°C
App
Temp
°C
Dew
Point
°C
Rel
Hum
%
Delta-T
°C
Wind Press
QNH
hPa
Press
MSL
hPa
Rain since
9am
mm
Dir  Spd
km/h
Gust
km/h
Spd
kts
Gust
kts
20/11:30pm 24.6 26.5 22.1 86 1.7 NE 15 24 8 13 1006.8 1005.0 3.2
20/11:00pm 25.1 27.3 21.8 82 2.2 E 13 20 7 11 1008.1 1006.3 2.6
20/10:30pm 25.5 25.4 21.4 78 2.7 NE 24 37 13 20 1006.9 1005.1 2.4
20/10:00pm 27.7 26.4 21.3 68 4.3 SE 30 44 16 24 1007.8 1006.0 1.8
20/09:48pm 27.3 29.8 22.5 75 3.3 ENE 13 35 7 19 1007.7 1005.9 1.8
20/09:30pm 27.3 29.2 22.7 76 3.2 N 17 30 9 16 1005.4 1003.7 1.8
20/09:00pm 27.4 28.3 22.6 75 3.3 N 22 33 12 18 1004.5 1002.8 1.8
20/08:30pm 26.1 25.5 22.6 81 2.4 NNW 30 46 16 25 1003.8 1002.0 1.8
20/08:04pm 28.7 27.7 21.2 64 5.0 N 28 52 15 28 1003.8 1002.0 1.6
20/08:00pm 30.0 30.2 21.4 60 5.8 N 22 35 12 19 1004.1 1002.3 1.4
20/07:30pm 28.8 32.9 22.3 68 4.4 SE 4 9 2 5 1003.9 1002.1 1.4
20/07:17pm 27.9 27.3 21.2 67 4.5 SSE 26 50 14 27 1004.3 1002.6 1.4
20/07:01pm 31.1 26.0 18.5 47 8.2 S 43 61 23 33 1004.0 1002.2 0.0
20/07:00pm 30.9 26.2 18.6 48 8.0 S 41 57 22 31 1004.1 1002.3 0.0
20/06:30pm 29.5 24.7 20.4 58 6.1 S 46 65 25 35 1004.4 1002.7 0.0
20/06:14pm 33.2 31.2 18.2 41 9.8 SSW 26 57 14 31 1004.0 1002.2 0.0
20/06:00pm 36.1 36.3 16.8 32 12.5 WSW 11 26 6 14 1003.0 1001.2 0.0
20/05:30pm 35.6 33.6 17.3 33 11.9 WSW 24 39 13 21 1002.4 1000.6 0.0
20/05:00pm 34.8 33.4 16.6 33 11.7 S 19 48 10 26 1002.6 1000.8 0.0
20/04:30pm 39.7 38.2 15.3 23 15.7 WSW 17 26 9 14 1002.0 1000.2 0.0
20/04:00pm 41.2 39.7 15.2 21 16.7 WSW 17 30 9 16 1002.0 1000.2 0.0
20/03:30pm 41.1 39.5 16.5 23 16.1 W 20 32 11 17 1002.3 1000.5 0.0
20/03:00pm 39.3 37.8 16.2 25 14.9 WSW 19 35 10 19 1002.8 1001.0 0.0
20/02:30pm 39.7 38.0 17.2 27 14.8 WSW 22 39 12 21 1003.4 1001.6 0.0
20/02:00pm 40.0 38.1 16.8 25 15.2 W 22 41 12 22 1003.9 1002.1 0.0
20/01:30pm 40.7 39.1 17.4 25 15.4 WSW 22 33 12 18 1004.7 1003.0 0.0
20/01:00pm 39.4 37.6 16.9 26 14.7 WSW 22 41 12 22 1005.5 1003.8 0.0
20/12:30pm 38.7 36.1 16.9 27 14.2 W 26 39 14 21 1006.2 1004.4 0.0
20/12:00pm 38.3 36.0 17.7 30 13.6 W 26 43 14 23 1006.6 1004.8 0.0
20/11:30am 37.6 34.5 17.6 31 13.1 WSW 30 43 16 23 1007.0 1005.2 0.0
20/11:00am 37.5 36.6 19.0 34 12.4 W 22 32 12 17 1007.6 1005.8 0.0
20/10:30am 36.5 35.6 19.0 35 11.7 W 22 33 12 18 1007.9 1006.1 0.0
20/10:00am 35.1 34.2 19.1 39 10.6 W 22 32 12 17 1008.3 1006.6 0.0
20/09:30am 34.2 34.0 19.4 41 9.9 WNW 19 30 10 16 1008.7 1007.0 0.0
20/09:00am 33.1 31.9 18.5 42 9.6 WNW 22 33 12 18 1008.8 1007.1 0.0
20/08:30am 32.6 32.3 19.1 44 8.9 WNW 19 30 10 16 1008.7 1007.0 0.0
20/08:00am 31.3 31.6 19.6 49 7.7 WNW 17 28 9 15 1008.7 1007.0 0.0
20/07:30am 30.3 30.6 19.6 52 7.1 WNW 17 26 9 14 1008.2 1006.4 0.0
20/07:00am 29.3 30.5 19.9 57 6.2 NW 13 24 7 13 1008.1 1006.3 0.0
20/06:30am 28.5 29.5 20.2 60 5.5 NW 15 22 8 12 1007.7 1005.9 0.0
20/06:00am 28.5 29.4 20.0 60 5.6 NW 15 26 8 14 1007.4 1005.6 0.0
20/05:30am 28.6 29.1 20.1 60 5.6 NW 17 24 9 13 1007.2 1005.4 0.0
20/05:00am 28.9 29.3 19.8 58 6.0 NW 17 28 9 15 1006.7 1004.9 0.0
20/04:30am 29.1 29.4 20.3 59 5.9 NNW 19 30 10 16 1006.0 1004.3 0.0
20/04:00am 28.6 29.4 20.6 62 5.3 NNW 17 24 9 13 1005.6 1003.9 0.0
20/03:30am 27.8 29.1 20.9 66 4.6 N 15 20 8 11 1005.9 1004.2 0.0
20/03:00am 27.8 29.2 20.4 64 4.9 NNW 13 20 7 11 1006.3 1004.5 0.0
20/02:30am 28.3 29.6 21.6 67 4.5 NNW 17 24 9 13 1006.4 1004.6 0.0
20/02:00am 28.5 30.9 22.3 69 4.2 N 13 20 7 11 1007.1 1005.3 0.0
20/01:30am 28.8 32.1 21.8 66 4.8 N 7 11 4 6 1006.9 1005.1 0.0
20/01:00am 29.1 30.2 21.3 62 5.3 NNE 17 22 9 12 1006.2 1004.4 0.0
20/12:30am 30.0 30.3 20.8 57 6.2 NNE 20 30 11 16 1006.0 1004.3 0.0
20/12:00am 30.3 30.9 20.2 54 6.7 NNE 17 24 9 13 1006.0 1004.3 0.0
 
Date/Time
CST
Temp
°C
App
Temp
°C
Dew
Point
°C
Rel
Hum
%
Delta-T
°C
Wind Press
QNH
hPa
Press
MSL
hPa
Rain since
9am
mm
Dir  Spd
km/h
Gust
km/h
Spd
kts
Gust
kts
19/11:30pm 29.5 28.3 20.1 57 6.2 NNE 26 35 14 19 1006.9 1005.1 0.0
19/11:23pm 31.1 29.4 19.8 51 7.5 NNE 28 41 15 22 1006.7 1004.9 0.0
19/11:00pm 32.6 34.4 18.4 43 9.3 N 6 11 3 6 1007.1 1005.3 0.0
19/10:30pm 32.0 33.5 17.5 42 9.4 W 6 11 3 6 1006.8 1005.0 0.0

Other Formats:

Comma delimited format used in spreadsheet applications
http://www.bom.gov.au/fwo/IDD60801/IDD60801.94255.axf

JavaScript Object Notation format (JSON) in row-major order
http://www.bom.gov.au/fwo/IDD60801/IDD60801.94255.json